createdAt,value
2022-09-03T00:02:04.843Z,7.17
2022-09-03T00:04:36.772Z,7.17
2022-09-03T00:07:06.658Z,7.17
2022-09-03T00:09:38.734Z,7.18
2022-09-03T00:12:09.663Z,7.17
2022-09-03T00:14:39.383Z,7.19
2022-09-03T00:17:10.829Z,7.19
2022-09-03T00:19:42.623Z,7.24
2022-09-03T00:22:13.885Z,7.27
2022-09-03T00:24:43.270Z,7.31
2022-09-03T00:27:14.156Z,7.32
2022-09-03T00:29:44.628Z,7.32
2022-09-03T00:32:16.450Z,7.35
2022-09-03T00:34:46.491Z,7.38
2022-09-03T00:37:15.376Z,7.38
2022-09-03T00:39:44.108Z,7.40
2022-09-03T00:42:21.051Z,7.43
2022-09-03T00:45:12.830Z,7.48
2022-09-03T00:47:50.128Z,7.52
2022-09-03T00:50:22.096Z,7.53
2022-09-03T00:52:55.606Z,7.56
2022-09-03T00:55:32.319Z,7.55
2022-09-03T00:58:08.653Z,7.58
2022-09-03T01:00:40.023Z,7.57
2022-09-03T01:03:11.111Z,7.56
2022-09-03T01:05:43.674Z,7.56
2022-09-03T01:08:32.231Z,7.60
2022-09-03T01:11:11.121Z,7.67
2022-09-03T01:13:40.983Z,7.72
2022-09-03T01:16:15.079Z,7.70
2022-09-03T01:18:49.615Z,7.70
2022-09-03T01:21:30.585Z,7.73
2022-09-03T01:24:09.951Z,7.76
2022-09-03T01:26:54.619Z,7.79
2022-09-03T01:29:26.923Z,7.82
2022-09-03T01:32:00.980Z,7.83
2022-09-03T01:34:33.150Z,7.82
2022-09-03T01:37:06.603Z,7.81
2022-09-03T01:39:40.469Z,7.82
2022-09-03T01:42:16.296Z,7.81
2022-09-03T01:45:01.962Z,7.80
2022-09-03T01:47:37.492Z,7.80
2022-09-03T01:50:09.291Z,7.81
2022-09-03T01:52:44.914Z,7.80
2022-09-03T01:55:20.304Z,7.84
2022-09-03T01:57:52.098Z,7.88
2022-09-03T02:00:21.614Z,7.91
2022-09-03T02:02:51.200Z,7.92
2022-09-03T02:05:20.588Z,7.98
2022-09-03T02:07:51.900Z,8.01
2022-09-03T02:10:21.290Z,8.05
2022-09-03T02:12:50.677Z,8.07
2022-09-03T02:15:19.878Z,8.12
2022-09-03T02:17:50.110Z,8.13
2022-09-03T02:20:21.167Z,8.15
2022-09-03T02:22:49.539Z,8.18
2022-09-03T02:25:17.518Z,8.20
2022-09-03T02:27:45.457Z,8.23
2022-09-03T02:30:13.382Z,8.24
2022-09-03T02:32:41.467Z,8.22
2022-09-03T02:35:11.264Z,8.25
2022-09-03T02:37:41.754Z,8.28
2022-09-03T02:40:11.022Z,8.32
2022-09-03T02:42:38.951Z,8.35
2022-09-03T02:45:13.281Z,8.35
2022-09-03T02:47:43.842Z,8.36
2022-09-03T02:50:12.942Z,8.35
2022-09-03T02:52:40.648Z,8.35
2022-09-03T02:55:08.663Z,8.35
2022-09-03T02:57:36.670Z,8.38
2022-09-03T03:00:04.831Z,8.39
2022-09-03T03:02:32.612Z,8.41
2022-09-03T03:05:00.378Z,8.42
2022-09-03T03:07:30.102Z,8.40
2022-09-03T03:09:57.902Z,8.39
2022-09-03T03:12:26.493Z,8.41
2022-09-03T03:14:54.162Z,8.43
2022-09-03T03:17:21.834Z,8.44
2022-09-03T03:19:50.154Z,8.47
2022-09-03T03:22:17.869Z,8.48
2022-09-03T03:24:46.935Z,8.51
2022-09-03T03:27:14.999Z,8.51
2022-09-03T03:29:42.666Z,8.50
2022-09-03T03:32:10.371Z,8.53
2022-09-03T03:34:38.561Z,8.54
2022-09-03T03:37:06.306Z,8.58
2022-09-03T03:39:34.014Z,8.59
2022-09-03T03:42:03.194Z,8.56
2022-09-03T03:44:30.874Z,8.55
2022-09-03T03:46:58.539Z,8.58
2022-09-03T03:49:26.234Z,8.60
2022-09-03T03:51:53.932Z,8.61
2022-09-03T03:54:22.670Z,8.64
2022-09-03T03:56:55.398Z,8.65
2022-09-03T03:59:25.021Z,8.65
2022-09-03T04:01:53.097Z,8.65
2022-09-03T04:04:20.754Z,8.64
2022-09-03T04:06:48.402Z,8.67
2022-09-03T04:09:16.063Z,8.70
2022-09-03T04:11:43.789Z,8.73
2022-09-03T04:14:11.726Z,8.74
2022-09-03T04:16:40.847Z,8.77
2022-09-03T04:19:08.575Z,8.79
2022-09-03T04:21:36.832Z,8.83
2022-09-03T04:24:05.638Z,8.84
2022-09-03T04:26:33.959Z,8.86
2022-09-03T04:29:02.530Z,8.89
2022-09-03T04:31:30.577Z,8.91
2022-09-03T04:33:59.891Z,8.94
2022-09-03T04:36:28.547Z,8.97
2022-09-03T04:38:56.939Z,8.96
2022-09-03T04:41:26.073Z,8.98
2022-09-03T04:43:54.195Z,8.99
2022-09-03T04:46:22.796Z,9.02
2022-09-03T04:48:51.186Z,9.01
2022-09-03T04:51:21.396Z,9.03
2022-09-03T04:53:51.238Z,9.05
2022-09-03T04:56:20.090Z,9.06
2022-09-03T04:58:49.313Z,9.07
2022-09-03T05:01:20.276Z,9.09
2022-09-03T05:03:48.154Z,9.11
2022-09-03T05:06:17.209Z,9.15
2022-09-03T05:08:49.001Z,9.15
2022-09-03T05:11:18.010Z,9.21
2022-09-03T05:13:48.549Z,9.25
2022-09-03T05:16:16.679Z,9.27
2022-09-03T05:18:45.141Z,9.29
2022-09-03T05:21:13.827Z,9.34
2022-09-03T05:23:42.632Z,9.41
2022-09-03T05:26:12.494Z,9.45
2022-09-03T05:28:41.086Z,9.47
2022-09-03T05:31:10.009Z,9.52
2022-09-03T05:33:38.218Z,9.57
2022-09-03T05:36:07.170Z,9.58
2022-09-03T05:38:35.106Z,9.60
2022-09-03T05:41:02.914Z,9.61
2022-09-03T05:43:32.261Z,9.63
2022-09-03T05:46:00.961Z,9.68
2022-09-03T05:48:28.850Z,9.70
2022-09-03T05:51:02.814Z,9.76
2022-09-03T05:53:30.818Z,9.78
2022-09-03T05:55:58.857Z,9.80
2022-09-03T05:58:26.947Z,9.83
2022-09-03T06:00:56.000Z,9.86
2022-09-03T06:03:23.957Z,9.91
2022-09-03T06:05:52.725Z,9.96
2022-09-03T06:08:20.412Z,10.01
2022-09-03T06:10:48.474Z,10.06
2022-09-03T06:13:16.207Z,10.09
2022-09-03T06:15:43.918Z,10.15
2022-09-03T06:18:12.969Z,10.18
2022-09-03T06:20:40.615Z,10.26
2022-09-03T06:23:08.256Z,10.28
2022-09-03T06:25:35.942Z,10.33
2022-09-03T06:28:04.215Z,10.36
2022-09-03T06:30:31.903Z,10.39
2022-09-03T06:32:59.618Z,10.43
2022-09-03T06:35:28.738Z,10.42
2022-09-03T06:38:00.506Z,10.46
2022-09-03T06:40:28.843Z,10.54
2022-09-03T06:42:58.051Z,10.58
2022-09-03T06:45:25.835Z,10.62
2022-09-03T06:47:55.081Z,10.65
2022-09-03T06:50:22.824Z,10.70
2022-09-03T06:52:55.097Z,10.72
2022-09-03T06:55:23.135Z,10.76
2022-09-03T06:57:52.788Z,10.80
2022-09-03T07:00:21.865Z,10.82
2022-09-03T07:02:53.802Z,10.83
2022-09-03T07:05:21.785Z,10.85
2022-09-03T07:07:49.438Z,10.87
2022-09-03T07:10:20.926Z,10.84
2022-09-03T07:12:48.651Z,10.85
2022-09-03T07:15:16.452Z,10.90
2022-09-03T07:17:44.383Z,10.93
2022-09-03T07:20:12.055Z,10.97
2022-09-03T07:22:39.755Z,10.99
2022-09-03T07:25:07.727Z,11.01
2022-09-03T07:27:37.226Z,11.03
2022-09-03T07:30:09.725Z,11.07
2022-09-03T07:32:41.063Z,11.09
2022-09-03T07:35:09.118Z,11.13
2022-09-03T07:37:37.561Z,11.14
2022-09-03T07:40:05.546Z,11.17
2022-09-03T07:42:36.127Z,11.25
2022-09-03T07:45:05.673Z,11.33
2022-09-03T07:47:34.599Z,11.37
2022-09-03T07:50:02.260Z,11.42
2022-09-03T07:52:29.958Z,11.50
2022-09-03T07:54:57.649Z,11.58
2022-09-03T07:57:25.361Z,11.66
2022-09-03T07:59:53.043Z,11.71
2022-09-03T08:02:22.115Z,11.71
2022-09-03T08:04:49.860Z,11.73
2022-09-03T08:07:17.559Z,11.76
2022-09-03T08:09:45.250Z,11.83
2022-09-03T08:12:13.007Z,11.88
2022-09-03T08:14:40.686Z,11.89
2022-09-03T08:17:08.333Z,11.90
2022-09-03T08:19:37.894Z,11.94
2022-09-03T08:22:05.922Z,11.97
2022-09-03T08:24:34.534Z,11.96
2022-09-03T08:27:02.287Z,12.03
2022-09-03T08:29:29.947Z,12.04
2022-09-03T08:31:59.617Z,12.06
2022-09-03T08:34:27.667Z,12.05
2022-09-03T08:36:56.788Z,12.05
2022-09-03T08:39:24.511Z,12.02
2022-09-03T08:42:02.132Z,12.03
2022-09-03T08:44:30.995Z,12.06
2022-09-03T08:47:01.362Z,12.15
2022-09-03T08:49:33.159Z,12.23
2022-09-03T08:52:05.690Z,12.30
2022-09-03T08:54:33.718Z,12.33
2022-09-03T08:57:02.730Z,12.33
2022-09-03T08:59:32.885Z,12.32
2022-09-03T09:02:04.604Z,12.31
2022-09-03T09:04:37.855Z,12.31
2022-09-03T09:07:12.098Z,12.35
2022-09-03T09:09:48.952Z,12.36
2022-09-03T09:12:22.867Z,12.38
2022-09-03T09:14:53.471Z,12.44
2022-09-03T09:17:32.703Z,12.51
2022-09-03T09:20:05.839Z,12.57
2022-09-03T09:22:36.267Z,12.59
2022-09-03T09:25:09.451Z,12.59
2022-09-03T09:27:37.089Z,12.56
2022-09-03T09:30:06.606Z,12.60
2022-09-03T09:32:35.939Z,12.67
2022-09-03T09:35:03.609Z,12.74
2022-09-03T09:37:31.279Z,12.73
2022-09-03T09:40:02.201Z,12.74
2022-09-03T09:42:31.183Z,12.79
2022-09-03T09:44:59.019Z,12.85
2022-09-03T09:47:28.875Z,12.87
2022-09-03T09:49:58.101Z,12.91
2022-09-03T09:52:28.664Z,12.95
2022-09-03T09:55:09.201Z,12.99
2022-09-03T09:57:37.352Z,13.03
2022-09-03T10:00:08.866Z,13.05
2022-09-03T10:02:38.202Z,13.04
2022-09-03T10:05:14.641Z,13.00
2022-09-03T10:07:42.500Z,13.00
2022-09-03T10:10:16.678Z,13.01
2022-09-03T10:12:48.898Z,13.05
2022-09-03T10:15:22.933Z,13.06
2022-09-03T10:17:55.275Z,13.08
2022-09-03T10:20:31.457Z,13.13
2022-09-03T10:23:03.199Z,13.17
2022-09-03T10:25:39.157Z,13.17
2022-09-03T10:28:08.268Z,13.20
2022-09-03T10:30:46.399Z,13.23
2022-09-03T10:33:17.999Z,13.26
2022-09-03T10:35:47.681Z,13.28
2022-09-03T10:38:19.084Z,13.33
2022-09-03T10:40:52.663Z,13.40
2022-09-03T10:43:37.786Z,13.44
2022-09-03T10:46:19.518Z,13.50
2022-09-03T10:49:11.833Z,13.54
2022-09-03T10:51:46.221Z,13.57
2022-09-03T10:54:26.421Z,13.56
2022-09-03T10:57:00.615Z,13.56
2022-09-03T10:59:33.992Z,13.53
2022-09-03T11:02:07.010Z,13.56
2022-09-03T11:04:39.517Z,13.53
2022-09-03T11:07:09.220Z,13.56
2022-09-03T11:09:38.906Z,13.52
2022-09-03T11:12:11.026Z,13.58
2022-09-03T11:14:41.967Z,13.61
2022-09-03T11:17:13.267Z,13.66
2022-09-03T11:19:48.083Z,13.69
2022-09-03T11:22:20.916Z,13.71
2022-09-03T11:24:56.628Z,13.77
2022-09-03T11:27:34.023Z,13.77
2022-09-03T11:30:03.567Z,13.74
2022-09-03T11:32:36.098Z,13.78
2022-09-03T11:35:14.451Z,13.77
2022-09-03T11:37:50.458Z,13.81
2022-09-03T11:40:19.465Z,13.79
2022-09-03T11:42:48.984Z,13.81
2022-09-03T11:45:24.904Z,13.82
2022-09-03T11:47:53.770Z,13.79
2022-09-03T11:50:23.905Z,13.81
2022-09-03T11:52:53.464Z,13.85
2022-09-03T11:55:32.640Z,13.91
2022-09-03T11:58:13.382Z,13.93
2022-09-03T12:00:44.607Z,13.97
2022-09-03T12:03:15.910Z,13.99
2022-09-03T12:05:48.701Z,14.00
2022-09-03T12:08:43.663Z,14.04
2022-09-03T12:11:21.766Z,14.09
2022-09-03T12:13:53.474Z,14.15
2022-09-03T12:16:31.141Z,14.17
2022-09-03T12:19:02.296Z,14.18
2022-09-03T12:21:30.735Z,14.21
2022-09-03T12:24:03.155Z,14.23
2022-09-03T12:26:30.945Z,14.26
2022-09-03T12:29:00.903Z,14.29
2022-09-03T12:31:30.703Z,14.31
2022-09-03T12:34:00.197Z,14.34
2022-09-03T12:36:28.489Z,14.32
2022-09-03T12:39:12.993Z,14.36
2022-09-03T12:41:54.164Z,14.44
2022-09-03T12:44:29.979Z,14.44
2022-09-03T12:49:53.960Z,14.50
2022-09-03T12:52:25.679Z,14.47
2022-09-03T12:54:55.862Z,14.50
2022-09-03T12:57:24.883Z,14.47
2022-09-03T12:59:56.271Z,14.49
2022-09-03T13:02:25.928Z,14.50
2022-09-03T13:04:54.358Z,14.48
2022-09-03T13:07:24.705Z,14.47
2022-09-03T13:09:52.527Z,14.54
2022-09-03T13:12:24.947Z,14.49
2022-09-03T13:14:55.306Z,14.48
2022-09-03T13:17:32.916Z,14.51
2022-09-03T13:20:11.121Z,14.52
2022-09-03T13:22:47.366Z,14.53
2022-09-03T13:25:17.458Z,14.49
2022-09-03T13:27:47.947Z,14.53
2022-09-03T13:30:18.344Z,14.52
2022-09-03T13:32:52.153Z,14.56
2022-09-03T13:35:24.934Z,14.58
2022-09-03T13:37:58.142Z,14.60
2022-09-03T13:40:29.935Z,14.61
2022-09-03T13:43:02.932Z,14.60
2022-09-03T13:45:36.594Z,14.58
2022-09-03T13:48:27.093Z,14.53
2022-09-03T13:51:03.460Z,14.47
2022-09-03T13:53:37.829Z,14.51
2022-09-03T13:56:14.554Z,14.51
2022-09-03T13:58:45.311Z,14.54
2022-09-03T14:01:20.495Z,14.55
2022-09-03T14:03:50.050Z,14.56
2022-09-03T14:06:22.879Z,14.54
2022-09-03T14:08:59.104Z,14.56
2022-09-03T14:11:31.024Z,14.57
2022-09-03T14:14:04.290Z,14.58
2022-09-03T14:16:38.515Z,14.61
2022-09-03T14:19:08.060Z,14.57
2022-09-03T14:21:40.570Z,14.53
2022-09-03T14:24:13.322Z,14.52
2022-09-03T14:26:51.194Z,14.54
2022-09-03T14:29:19.403Z,14.51
2022-09-03T14:32:14.323Z,14.48
2022-09-03T14:34:53.603Z,14.44
2022-09-03T14:37:34.596Z,14.43
2022-09-03T14:40:10.702Z,14.36
2022-09-03T14:42:49.129Z,14.33
2022-09-03T14:45:21.267Z,14.32
2022-09-03T14:47:55.058Z,14.33
2022-09-03T14:50:35.770Z,14.32
2022-09-03T14:53:12.392Z,14.27
2022-09-03T14:55:58.618Z,14.30
2022-09-03T14:58:32.367Z,14.30
2022-09-03T15:01:02.682Z,14.31
2022-09-03T15:03:45.284Z,14.30
2022-09-03T15:06:30.683Z,14.33
2022-09-03T15:09:13.914Z,14.32
2022-09-03T15:11:48.072Z,14.34
2022-09-03T15:14:19.199Z,14.32
2022-09-03T15:16:51.024Z,14.32
2022-09-03T15:19:28.373Z,14.31
2022-09-03T15:22:09.758Z,14.30
2022-09-03T15:24:43.687Z,14.29
2022-09-03T15:27:20.821Z,14.26
2022-09-03T15:29:53.916Z,14.26
2022-09-03T15:32:39.782Z,14.27
2022-09-03T15:35:09.089Z,14.29
2022-09-03T15:37:43.762Z,14.28
2022-09-03T15:40:26.759Z,14.26
2022-09-03T15:42:58.213Z,14.23
2022-09-03T15:45:37.081Z,14.14
2022-09-03T15:48:11.256Z,14.10
2022-09-03T15:50:50.166Z,14.03
2022-09-03T15:53:25.561Z,13.98
2022-09-03T15:56:03.344Z,13.94
2022-09-03T15:58:34.293Z,13.94
2022-09-03T16:01:04.712Z,13.95
2022-09-03T16:03:46.902Z,13.91
2022-09-03T16:06:27.234Z,13.84
2022-09-03T16:08:57.255Z,13.82
2022-09-03T16:11:33.890Z,13.77
2022-09-03T16:14:04.670Z,13.74
2022-09-03T16:16:42.462Z,13.69
2022-09-03T16:19:17.043Z,13.67
2022-09-03T16:21:47.374Z,13.63
2022-09-03T16:24:20.617Z,13.60
2022-09-03T16:26:51.143Z,13.56
2022-09-03T16:29:20.090Z,13.53
2022-09-03T16:31:53.488Z,13.48
2022-09-03T16:34:27.630Z,13.43
2022-09-03T16:37:01.901Z,13.43
2022-09-03T16:39:38.652Z,13.43
2022-09-03T16:42:13.083Z,13.39
2022-09-03T16:44:49.083Z,13.36
2022-09-03T16:47:21.682Z,13.35
2022-09-03T16:49:53.904Z,13.34
2022-09-03T16:52:38.478Z,13.34
2022-09-03T16:55:15.018Z,13.32
2022-09-03T16:57:54.387Z,13.30
2022-09-03T17:00:22.686Z,13.29
2022-09-03T17:03:02.706Z,13.27
2022-09-03T17:05:41.354Z,13.22
2022-09-03T17:08:19.739Z,13.24
2022-09-03T17:10:51.267Z,13.18
2022-09-03T17:13:33.195Z,13.17
2022-09-03T17:16:05.776Z,13.16
2022-09-03T17:18:41.759Z,13.17
2022-09-03T17:21:22.626Z,13.14
2022-09-03T17:24:02.399Z,13.13
2022-09-03T17:26:35.693Z,13.12
2022-09-03T17:29:14.487Z,13.10
2022-09-03T17:31:51.192Z,13.09
2022-09-03T17:34:30.143Z,13.05
2022-09-03T17:37:09.803Z,13.03
2022-09-03T17:39:54.658Z,13.01
2022-09-03T17:42:28.126Z,12.98
2022-09-03T17:45:04.170Z,12.96
2022-09-03T17:47:41.672Z,12.94
2022-09-03T17:50:15.938Z,12.92
2022-09-03T17:52:46.363Z,12.93
2022-09-03T17:55:16.691Z,12.91
2022-09-03T17:57:47.971Z,12.87
2022-09-03T18:00:23.846Z,12.85
2022-09-03T18:02:54.767Z,12.83
2022-09-03T18:05:24.358Z,12.79
2022-09-03T18:07:55.852Z,12.76
2022-09-03T18:10:27.463Z,12.75
2022-09-03T18:13:03.613Z,12.77
2022-09-03T18:15:33.874Z,12.75
2022-09-03T18:18:05.534Z,12.72
2022-09-03T18:21:21.140Z,12.71
2022-09-03T18:24:11.174Z,12.71
2022-09-03T18:27:00.542Z,12.66
2022-09-03T18:29:54.172Z,12.67
2022-09-03T18:32:39.978Z,12.65
2022-09-03T18:35:26.715Z,12.65
2022-09-03T18:38:11.737Z,12.66
2022-09-03T18:41:01.342Z,12.62
2022-09-03T18:43:52.070Z,12.58
2022-09-03T18:49:50.757Z,12.56
2022-09-03T18:52:37.535Z,12.54
2022-09-03T18:55:29.264Z,12.49
2022-09-03T18:58:22.618Z,12.46
2022-09-03T19:01:14.979Z,12.45
2022-09-03T19:04:09.423Z,12.43
2022-09-03T19:06:57.163Z,12.44
2022-09-03T19:09:52.453Z,12.42
2022-09-03T19:12:59.270Z,12.37
2022-09-03T19:15:47.177Z,12.38
2022-09-03T19:18:39.458Z,12.36
2022-09-03T19:21:33.177Z,12.34
2022-09-03T19:24:19.086Z,12.32
2022-09-03T19:27:29.986Z,12.31
2022-09-03T19:30:20.348Z,12.27
2022-09-03T19:33:17.154Z,12.23
2022-09-03T19:36:06.609Z,12.14
2022-09-03T19:38:58.685Z,12.05
2022-09-03T19:41:45.938Z,11.99
2022-09-03T19:44:50.160Z,11.92
2022-09-03T19:47:43.030Z,11.85
2022-09-03T19:50:33.435Z,11.71
2022-09-03T19:53:20.438Z,11.61
2022-09-03T19:56:11.267Z,11.55
2022-09-03T19:58:58.861Z,11.51
2022-09-03T20:01:48.286Z,11.50
2022-09-03T20:04:34.681Z,11.36
2022-09-03T20:07:22.231Z,11.27
2022-09-03T20:10:08.121Z,11.25
2022-09-03T20:12:39.832Z,11.23
2022-09-03T20:15:08.216Z,11.18
2022-09-03T20:17:39.502Z,11.17
2022-09-03T20:20:25.285Z,11.11
2022-09-03T20:22:57.451Z,11.13
2022-09-03T20:25:51.946Z,11.12
2022-09-03T20:28:29.307Z,11.07
2022-09-03T20:31:00.678Z,11.04
2022-09-03T20:33:38.163Z,11.04
2022-09-03T20:36:17.182Z,11.02
2022-09-03T20:38:54.110Z,11.00
2022-09-03T20:41:24.805Z,11.00
2022-09-03T20:44:08.467Z,10.98
2022-09-03T20:46:46.264Z,10.96
2022-09-03T20:49:21.950Z,10.97
2022-09-03T20:51:53.234Z,10.97
2022-09-03T20:54:22.882Z,10.97
2022-09-03T20:57:01.558Z,10.97
2022-09-03T20:59:41.933Z,10.93
2022-09-03T21:02:18.588Z,10.92
2022-09-03T21:04:52.541Z,10.93
2022-09-03T21:07:26.945Z,10.95
2022-09-03T21:09:57.599Z,10.98
2022-09-03T21:12:30.555Z,10.97
2022-09-03T21:15:04.797Z,10.93
2022-09-03T21:17:39.271Z,10.94
2022-09-03T21:20:15.742Z,10.98
2022-09-03T21:22:52.775Z,10.97
2022-09-03T21:25:25.050Z,11.00
2022-09-03T21:27:56.264Z,11.01
2022-09-03T21:30:25.352Z,11.05
2022-09-03T21:33:01.480Z,11.05
2022-09-03T21:35:31.120Z,11.04
2022-09-03T21:38:00.629Z,11.04
2022-09-03T21:40:31.442Z,11.01
2022-09-03T21:43:05.614Z,11.01
2022-09-03T21:45:36.839Z,11.05
2022-09-03T21:48:07.726Z,11.04
2022-09-03T21:50:42.930Z,11.03
2022-09-03T21:53:13.677Z,11.05
2022-09-03T21:55:48.228Z,11.04
2022-09-03T21:58:23.144Z,11.04
2022-09-03T22:00:52.958Z,11.06
2022-09-03T22:03:20.682Z,11.05
2022-09-03T22:05:51.913Z,11.07
2022-09-03T22:08:22.384Z,11.08
2022-09-03T22:10:55.123Z,11.09
2022-09-03T22:13:28.518Z,11.07
2022-09-03T22:16:01.687Z,11.03
2022-09-03T22:18:30.435Z,10.99
2022-09-03T22:21:04.072Z,11.00
2022-09-03T22:23:42.760Z,10.98
2022-09-03T22:26:21.404Z,10.95
2022-09-03T22:28:55.101Z,10.94
2022-09-03T22:31:30.694Z,10.95
2022-09-03T22:34:04.617Z,10.96
2022-09-03T22:36:36.252Z,10.95
2022-09-03T22:39:11.758Z,10.94
2022-09-03T22:41:48.766Z,10.90
2022-09-03T22:44:24.619Z,10.91
2022-09-03T22:46:59.143Z,10.92
2022-09-03T22:49:32.895Z,10.92
2022-09-03T22:52:06.699Z,10.90
2022-09-03T22:54:44.910Z,10.87
2022-09-03T22:57:15.286Z,10.88
2022-09-03T22:59:47.122Z,10.83
2022-09-03T23:02:19.371Z,10.76
2022-09-03T23:04:51.943Z,10.74
2022-09-03T23:07:22.235Z,10.73
2022-09-03T23:09:52.467Z,10.74
2022-09-03T23:12:22.711Z,10.75
2022-09-03T23:14:54.145Z,10.73
2022-09-03T23:19:58.118Z,10.76
2022-09-03T23:22:28.864Z,10.73
2022-09-03T23:24:58.420Z,10.72
2022-09-03T23:27:28.256Z,10.70
2022-09-03T23:29:56.867Z,10.68
2022-09-03T23:32:29.560Z,10.66
2022-09-03T23:35:01.363Z,10.65
2022-09-03T23:37:37.944Z,10.69
2022-09-03T23:40:17.227Z,10.70
2022-09-03T23:42:51.377Z,10.69
2022-09-03T23:45:27.384Z,10.67
2022-09-03T23:48:00.392Z,10.63
2022-09-03T23:50:32.306Z,10.64
2022-09-03T23:53:07.252Z,10.62
2022-09-03T23:55:42.775Z,10.58
2022-09-03T23:58:12.151Z,10.60
